EJU31NL LEZL-LFLL
Flight info
| Callsign | EJU31NL |
|---|---|
| Flight time | 1h 48m |
| Altitude | 38000 |
| Route | HIJ DCT PARKA DCT TLD DCT SIE DCT BASIM DCT GASMO DCT VABAR T430 LPA DCT GOSVI/N0433F280 DCT TOPTU DCT TOU DCT GAI DCT MEN/N0417F260 DCT NINUN G53 MEZIN |
| Aircraft | A20N/M-SDE2E3FGHIRWXY/LB1 |
Departure
| Time | 2026-03-25 08:14 |
|---|---|
| Airport | Seville Airport (LEZL) |
Arrival
| Time | 2026-03-25 10:03 |
|---|---|
| Airport | Lyon Saint-Exupéry Airport (LFLL) |
| Time | Latitude | Longitude | Altitude | Speed | Heading |
|---|---|---|---|---|---|
| 2026-03-25 07:48 | 37.42342 | -5.89542 | 95 ft | 0 kts | 100° |
| 2026-03-25 08:06 | 37.42342 | -5.89541 | 95 ft | 0 kts | 105° |
| 2026-03-25 08:06 | 37.42337 | -5.89534 | 95 ft | 2 kts | 141° |
| 2026-03-25 08:06 | 37.42313 | -5.89545 | 95 ft | 7 kts | 233° |
| 2026-03-25 08:06 | 37.42307 | -5.89634 | 95 ft | 13 kts | 266° |
| 2026-03-25 08:07 | 37.42269 | -5.89747 | 95 ft | 15 kts | 226° |
| 2026-03-25 08:07 | 37.42190 | -5.89849 | 94 ft | 17 kts | 225° |
| 2026-03-25 08:07 | 37.42082 | -5.89984 | 93 ft | 27 kts | 225° |
| 2026-03-25 08:07 | 37.42053 | -5.90160 | 92 ft | 19 kts | 269° |
| 2026-03-25 08:08 | 37.42027 | -5.90300 | 92 ft | 6 kts | 202° |
| 2026-03-25 08:08 | 37.42025 | -5.90300 | 92 ft | 0 kts | 199° |
| 2026-03-25 08:08 | 37.42017 | -5.90303 | 92 ft | 2 kts | 189° |
| 2026-03-25 08:08 | 37.41985 | -5.90341 | 91 ft | 12 kts | 255° |
| 2026-03-25 08:09 | 37.41980 | -5.90455 | 91 ft | 13 kts | 271° |
| 2026-03-25 08:09 | 37.41980 | -5.90582 | 90 ft | 15 kts | 269° |
| 2026-03-25 08:09 | 37.41979 | -5.90721 | 90 ft | 16 kts | 269° |
| 2026-03-25 08:09 | 37.41979 | -5.90871 | 89 ft | 17 kts | 270° |
| 2026-03-25 08:10 | 37.41979 | -5.91028 | 88 ft | 18 kts | 269° |
| 2026-03-25 08:10 | 37.41978 | -5.91193 | 88 ft | 19 kts | 270° |
| 2026-03-25 08:10 | 37.41915 | -5.91314 | 87 ft | 17 kts | 181° |
| 2026-03-25 08:10 | 37.41855 | -5.91271 | 87 ft | 5 kts | 129° |
| 2026-03-25 08:11 | 37.41850 | -5.91261 | 87 ft | 0 kts | 123° |
| 2026-03-25 08:11 | 37.41847 | -5.91256 | 87 ft | 1 kts | 123° |
| 2026-03-25 08:11 | 37.41825 | -5.91213 | 87 ft | 8 kts | 123° |
| 2026-03-25 08:11 | 37.41790 | -5.91134 | 88 ft | 11 kts | 103° |
| 2026-03-25 08:12 | 37.41788 | -5.91109 | 88 ft | 0 kts | 92° |
| 2026-03-25 08:13 | 37.41788 | -5.91005 | 88 ft | 43 kts | 88° |
| 2026-03-25 08:13 | 37.41794 | -5.90321 | 91 ft | 111 kts | 90° |
| 2026-03-25 08:13 | 37.41796 | -5.89107 | 152 ft | 158 kts | 88° |
| 2026-03-25 08:14 | 37.41786 | -5.87726 | 711 ft | 160 kts | 90° |
| 2026-03-25 08:14 | 37.41742 | -5.86352 | 1408 ft | 158 kts | 91° |
| 2026-03-25 08:14 | 37.41688 | -5.84922 | 1830 ft | 172 kts | 91° |
| 2026-03-25 08:14 | 37.41631 | -5.83365 | 2219 ft | 189 kts | 91° |
| 2026-03-25 08:15 | 37.41593 | -5.81634 | 2622 ft | 206 kts | 86° |
| 2026-03-25 08:15 | 37.41775 | -5.79745 | 2989 ft | 228 kts | 77° |
| 2026-03-25 08:15 | 37.42273 | -5.77765 | 3531 ft | 244 kts | 66° |
| 2026-03-25 08:15 | 37.43256 | -5.76042 | 4260 ft | 252 kts | 40° |
| 2026-03-25 08:16 | 37.44779 | -5.74945 | 5080 ft | 257 kts | 26° |
| 2026-03-25 08:16 | 37.46424 | -5.73998 | 5888 ft | 262 kts | 26° |
| 2026-03-25 08:16 | 37.48071 | -5.73021 | 6675 ft | 267 kts | 27° |
| 2026-03-25 08:16 | 37.49760 | -5.72009 | 7493 ft | 271 kts | 27° |
| 2026-03-25 08:17 | 37.51470 | -5.70981 | 8297 ft | 275 kts | 27° |
| 2026-03-25 08:17 | 37.53176 | -5.69952 | 9071 ft | 279 kts | 26° |
| 2026-03-25 08:17 | 37.54934 | -5.68887 | 9803 ft | 283 kts | 26° |
| 2026-03-25 08:17 | 37.56720 | -5.67808 | 10500 ft | 289 kts | 26° |
| 2026-03-25 08:18 | 37.58577 | -5.66686 | 10916 ft | 306 kts | 27° |
| 2026-03-25 08:18 | 37.60555 | -5.65487 | 11255 ft | 324 kts | 27° |
| 2026-03-25 08:18 | 37.62631 | -5.64227 | 11561 ft | 341 kts | 27° |
| 2026-03-25 08:18 | 37.64812 | -5.62904 | 12041 ft | 352 kts | 27° |
| 2026-03-25 08:19 | 37.67018 | -5.61567 | 12767 ft | 355 kts | 27° |
| 2026-03-25 08:19 | 37.69253 | -5.60210 | 13508 ft | 357 kts | 27° |
| 2026-03-25 08:19 | 37.71506 | -5.58840 | 14193 ft | 360 kts | 27° |
| 2026-03-25 08:19 | 37.73773 | -5.57461 | 14886 ft | 362 kts | 27° |
| 2026-03-25 08:20 | 37.76027 | -5.56089 | 15553 ft | 365 kts | 27° |
| 2026-03-25 08:20 | 37.78316 | -5.54695 | 16222 ft | 367 kts | 27° |
| 2026-03-25 08:20 | 37.80605 | -5.53301 | 16882 ft | 368 kts | 28° |
| 2026-03-25 08:20 | 37.82927 | -5.51882 | 17523 ft | 370 kts | 28° |
| 2026-03-25 08:21 | 37.85256 | -5.50459 | 18149 ft | 372 kts | 28° |
| 2026-03-25 08:21 | 37.87568 | -5.49047 | 18718 ft | 375 kts | 28° |
| 2026-03-25 08:21 | 37.89943 | -5.47594 | 19286 ft | 377 kts | 28° |
| 2026-03-25 08:21 | 37.92289 | -5.46158 | 19847 ft | 379 kts | 28° |
| 2026-03-25 08:22 | 37.94679 | -5.44695 | 20412 ft | 381 kts | 28° |
| 2026-03-25 08:22 | 37.97079 | -5.43222 | 20955 ft | 383 kts | 28° |
| 2026-03-25 08:22 | 37.99459 | -5.41762 | 21450 ft | 385 kts | 28° |
| 2026-03-25 08:22 | 38.01906 | -5.40260 | 21960 ft | 387 kts | 29° |
| 2026-03-25 08:23 | 38.04338 | -5.38767 | 22468 ft | 389 kts | 29° |
| 2026-03-25 08:23 | 38.06799 | -5.37253 | 22942 ft | 391 kts | 29° |
| 2026-03-25 08:23 | 38.09289 | -5.35721 | 23427 ft | 393 kts | 29° |
| 2026-03-25 08:23 | 38.11725 | -5.34219 | 23878 ft | 396 kts | 29° |
| 2026-03-25 08:24 | 38.14247 | -5.32664 | 24310 ft | 399 kts | 29° |
| 2026-03-25 08:24 | 38.16760 | -5.31114 | 24711 ft | 402 kts | 29° |
| 2026-03-25 08:24 | 38.19282 | -5.29556 | 25116 ft | 405 kts | 29° |
| 2026-03-25 08:24 | 38.21867 | -5.27959 | 25526 ft | 408 kts | 29° |
| 2026-03-25 08:25 | 38.24412 | -5.26387 | 25906 ft | 411 kts | 29° |
| 2026-03-25 08:25 | 38.27021 | -5.24774 | 26266 ft | 414 kts | 29° |
| 2026-03-25 08:25 | 38.29643 | -5.23150 | 26631 ft | 417 kts | 29° |
| 2026-03-25 08:25 | 38.32256 | -5.21532 | 26989 ft | 420 kts | 29° |
| 2026-03-25 08:26 | 38.34923 | -5.19878 | 27325 ft | 422 kts | 29° |
| 2026-03-25 08:26 | 38.37576 | -5.18231 | 27642 ft | 425 kts | 29° |
| 2026-03-25 08:26 | 38.40248 | -5.16572 | 27954 ft | 428 kts | 29° |
| 2026-03-25 08:27 | 38.45677 | -5.13196 | 28563 ft | 433 kts | 28° |
| 2026-03-25 08:27 | 38.48520 | -5.11742 | 28845 ft | 438 kts | 20° |
| 2026-03-25 08:27 | 38.51509 | -5.10829 | 29100 ft | 444 kts | 12° |
| 2026-03-25 08:27 | 38.54635 | -5.10468 | 29354 ft | 450 kts | 4° |
| 2026-03-25 08:28 | 38.57768 | -5.10627 | 29667 ft | 453 kts | 359° |
| 2026-03-25 08:28 | 38.60903 | -5.10938 | 30047 ft | 452 kts | 359° |
| 2026-03-25 08:28 | 38.64081 | -5.11281 | 30407 ft | 451 kts | 359° |
| 2026-03-25 08:28 | 38.67205 | -5.11620 | 30745 ft | 451 kts | 359° |
| 2026-03-25 08:29 | 38.70336 | -5.11953 | 31089 ft | 450 kts | 359° |
| 2026-03-25 08:29 | 38.73481 | -5.12280 | 31423 ft | 450 kts | 359° |
| 2026-03-25 08:29 | 38.76532 | -5.12595 | 31745 ft | 449 kts | 359° |
| 2026-03-25 08:29 | 38.79633 | -5.12914 | 32074 ft | 448 kts | 359° |
| 2026-03-25 08:30 | 38.82779 | -5.13238 | 32379 ft | 447 kts | 359° |
| 2026-03-25 08:30 | 38.85878 | -5.13554 | 32665 ft | 447 kts | 359° |
| 2026-03-25 08:30 | 38.89026 | -5.13876 | 32938 ft | 447 kts | 359° |
| 2026-03-25 08:30 | 38.92152 | -5.14086 | 33194 ft | 445 kts | 3° |
| 2026-03-25 08:31 | 38.95259 | -5.13900 | 33461 ft | 442 kts | 9° |
| 2026-03-25 08:31 | 38.98284 | -5.13317 | 33721 ft | 439 kts | 14° |
| 2026-03-25 08:31 | 39.01234 | -5.12350 | 33960 ft | 437 kts | 20° |
| 2026-03-25 08:31 | 39.04068 | -5.11016 | 34224 ft | 434 kts | 26° |
| 2026-03-25 08:32 | 39.06777 | -5.09331 | 34490 ft | 432 kts | 31° |
| 2026-03-25 08:32 | 39.09364 | -5.07334 | 34750 ft | 430 kts | 34° |
| 2026-03-25 08:32 | 39.11874 | -5.05270 | 35011 ft | 429 kts | 34° |
| 2026-03-25 08:32 | 39.14411 | -5.03157 | 35287 ft | 428 kts | 35° |
| 2026-03-25 08:33 | 39.16913 | -5.01072 | 35536 ft | 428 kts | 34° |
| 2026-03-25 08:33 | 39.19408 | -4.98993 | 35761 ft | 427 kts | 34° |
| 2026-03-25 08:33 | 39.21907 | -4.96912 | 36000 ft | 426 kts | 34° |
| 2026-03-25 08:33 | 39.24368 | -4.94863 | 36213 ft | 426 kts | 34° |
| 2026-03-25 08:34 | 39.26848 | -4.92797 | 36386 ft | 426 kts | 34° |
| 2026-03-25 08:34 | 39.29353 | -4.90712 | 36529 ft | 427 kts | 34° |
| 2026-03-25 08:34 | 39.31857 | -4.88625 | 36651 ft | 428 kts | 34° |
| 2026-03-25 08:34 | 39.34339 | -4.86556 | 36776 ft | 429 kts | 34° |
| 2026-03-25 08:35 | 39.36852 | -4.84460 | 36890 ft | 429 kts | 34° |
| 2026-03-25 08:35 | 39.39339 | -4.82382 | 36988 ft | 430 kts | 34° |
| 2026-03-25 08:35 | 39.44370 | -4.78177 | 37170 ft | 432 kts | 34° |
| 2026-03-25 08:36 | 39.49441 | -4.73928 | 37370 ft | 433 kts | 34° |
| 2026-03-25 08:36 | 39.54484 | -4.69698 | 37551 ft | 434 kts | 33° |
| 2026-03-25 08:37 | 39.59575 | -4.65417 | 37702 ft | 436 kts | 33° |
| 2026-03-25 08:37 | 39.64659 | -4.61138 | 37817 ft | 437 kts | 33° |
| 2026-03-25 08:38 | 39.69731 | -4.56859 | 37951 ft | 438 kts | 33° |
| 2026-03-25 08:38 | 39.74849 | -4.52535 | 38049 ft | 439 kts | 33° |
| 2026-03-25 08:39 | 39.79972 | -4.48196 | 38131 ft | 441 kts | 33° |
| 2026-03-25 08:39 | 39.85091 | -4.43854 | 38186 ft | 442 kts | 33° |
| 2026-03-25 08:40 | 39.90271 | -4.39452 | 38193 ft | 443 kts | 33° |
| 2026-03-25 08:40 | 39.95476 | -4.35095 | 38188 ft | 444 kts | 30° |
| 2026-03-25 08:41 | 40.00943 | -4.31320 | 38189 ft | 444 kts | 26° |
| 2026-03-25 08:41 | 40.06550 | -4.27896 | 38195 ft | 444 kts | 25° |
| 2026-03-25 08:42 | 40.12186 | -4.24470 | 38194 ft | 444 kts | 25° |
| 2026-03-25 08:42 | 40.17793 | -4.21047 | 38195 ft | 444 kts | 25° |
| 2026-03-25 08:43 | 40.23358 | -4.17640 | 38200 ft | 444 kts | 25° |
| 2026-03-25 08:43 | 40.28994 | -4.14183 | 38199 ft | 443 kts | 25° |
| 2026-03-25 08:44 | 40.34607 | -4.10733 | 38199 ft | 443 kts | 25° |
| 2026-03-25 08:44 | 40.40183 | -4.07297 | 38203 ft | 443 kts | 25° |
| 2026-03-25 08:45 | 40.45652 | -4.03923 | 38197 ft | 444 kts | 24° |
| 2026-03-25 08:45 | 40.51289 | -4.00438 | 38194 ft | 445 kts | 24° |
| 2026-03-25 08:46 | 40.56891 | -3.96969 | 38196 ft | 444 kts | 24° |
| 2026-03-25 08:46 | 40.62482 | -3.93501 | 38198 ft | 444 kts | 24° |
| 2026-03-25 08:47 | 40.68070 | -3.90027 | 38199 ft | 445 kts | 24° |
| 2026-03-25 08:47 | 40.73704 | -3.86517 | 38193 ft | 446 kts | 23° |
| 2026-03-25 08:48 | 40.79343 | -3.83004 | 38202 ft | 447 kts | 24° |
| 2026-03-25 08:48 | 40.84978 | -3.79481 | 38201 ft | 448 kts | 23° |
| 2026-03-25 08:49 | 40.90610 | -3.75951 | 38206 ft | 450 kts | 23° |
| 2026-03-25 08:49 | 40.96281 | -3.72395 | 38209 ft | 450 kts | 23° |
| 2026-03-25 08:50 | 41.01922 | -3.68848 | 38212 ft | 450 kts | 23° |
| 2026-03-25 08:50 | 41.07599 | -3.65271 | 38210 ft | 451 kts | 23° |
| 2026-03-25 08:51 | 41.13254 | -3.61589 | 38207 ft | 453 kts | 26° |
| 2026-03-25 08:51 | 41.18657 | -3.57179 | 38210 ft | 456 kts | 32° |
| 2026-03-25 08:52 | 41.23884 | -3.52220 | 38201 ft | 457 kts | 33° |
| 2026-03-25 08:52 | 41.29031 | -3.47277 | 38203 ft | 456 kts | 33° |
| 2026-03-25 08:53 | 41.34184 | -3.42334 | 38211 ft | 457 kts | 33° |
| 2026-03-25 08:53 | 41.39338 | -3.37387 | 38205 ft | 457 kts | 33° |
| 2026-03-25 08:54 | 41.44498 | -3.32425 | 38203 ft | 458 kts | 33° |
| 2026-03-25 08:54 | 41.49681 | -3.27430 | 38206 ft | 458 kts | 33° |
| 2026-03-25 08:55 | 41.54857 | -3.22441 | 38207 ft | 458 kts | 33° |
| 2026-03-25 08:55 | 41.60016 | -3.17458 | 38207 ft | 459 kts | 33° |
| 2026-03-25 08:56 | 41.65220 | -3.12414 | 38209 ft | 459 kts | 33° |
| 2026-03-25 08:56 | 41.70370 | -3.07417 | 38204 ft | 459 kts | 33° |
| 2026-03-25 08:57 | 41.75569 | -3.02363 | 38204 ft | 460 kts | 33° |
| 2026-03-25 08:57 | 41.80750 | -2.97312 | 38211 ft | 460 kts | 33° |
| 2026-03-25 08:58 | 41.85580 | -2.92592 | 38209 ft | 461 kts | 33° |
| 2026-03-25 08:58 | 41.90747 | -2.87536 | 38208 ft | 461 kts | 33° |
| 2026-03-25 08:59 | 41.95923 | -2.82453 | 38206 ft | 461 kts | 33° |
| 2026-03-25 08:59 | 42.01115 | -2.77347 | 38201 ft | 461 kts | 32° |
| 2026-03-25 09:00 | 42.06292 | -2.72245 | 38201 ft | 461 kts | 32° |
| 2026-03-25 09:00 | 42.11406 | -2.67196 | 38204 ft | 462 kts | 32° |
| 2026-03-25 09:01 | 42.16574 | -2.62079 | 38203 ft | 463 kts | 32° |
| 2026-03-25 09:01 | 42.21796 | -2.56907 | 38205 ft | 464 kts | 32° |
| 2026-03-25 09:02 | 42.26998 | -2.51742 | 38208 ft | 464 kts | 32° |
| 2026-03-25 09:02 | 42.32210 | -2.46553 | 38209 ft | 465 kts | 32° |
| 2026-03-25 09:03 | 42.37462 | -2.41311 | 38223 ft | 465 kts | 32° |
| 2026-03-25 09:03 | 42.42291 | -2.35449 | 38229 ft | 472 kts | 45° |
| 2026-03-25 09:04 | 42.46024 | -2.28041 | 38230 ft | 479 kts | 60° |
| 2026-03-25 09:04 | 42.48309 | -2.19704 | 38235 ft | 484 kts | 74° |
| 2026-03-25 09:05 | 42.49537 | -2.12285 | 38238 ft | 485 kts | 76° |
| 2026-03-25 09:05 | 42.50954 | -2.03313 | 38242 ft | 485 kts | 76° |
| 2026-03-25 09:06 | 42.52267 | -1.95199 | 38239 ft | 486 kts | 76° |
| 2026-03-25 09:06 | 42.53722 | -1.86286 | 38243 ft | 486 kts | 76° |
| 2026-03-25 09:07 | 42.55182 | -1.77326 | 38233 ft | 485 kts | 75° |
| 2026-03-25 09:07 | 42.56631 | -1.68392 | 38224 ft | 485 kts | 75° |
| 2026-03-25 09:08 | 42.58065 | -1.59503 | 38218 ft | 486 kts | 75° |
| 2026-03-25 09:08 | 42.59510 | -1.50486 | 38212 ft | 485 kts | 75° |
| 2026-03-25 09:09 | 42.60939 | -1.41541 | 38214 ft | 485 kts | 75° |
| 2026-03-25 09:09 | 42.62334 | -1.32749 | 38215 ft | 486 kts | 76° |
| 2026-03-25 09:10 | 42.63755 | -1.23743 | 38215 ft | 487 kts | 76° |
| 2026-03-25 09:10 | 42.65174 | -1.14704 | 38202 ft | 488 kts | 76° |
| 2026-03-25 09:11 | 42.66583 | -1.05664 | 38208 ft | 488 kts | 76° |
| 2026-03-25 09:11 | 42.67983 | -0.96646 | 38200 ft | 488 kts | 76° |
| 2026-03-25 09:12 | 42.69369 | -0.87671 | 38202 ft | 489 kts | 76° |
| 2026-03-25 09:12 | 42.70761 | -0.78595 | 38190 ft | 489 kts | 76° |
| 2026-03-25 09:13 | 42.72145 | -0.69542 | 38181 ft | 489 kts | 76° |
| 2026-03-25 09:13 | 42.73516 | -0.60500 | 38176 ft | 489 kts | 76° |
| 2026-03-25 09:14 | 42.74893 | -0.51386 | 38174 ft | 490 kts | 76° |
| 2026-03-25 09:14 | 42.76249 | -0.42343 | 38181 ft | 490 kts | 76° |
| 2026-03-25 09:15 | 42.77602 | -0.33273 | 38177 ft | 490 kts | 76° |
| 2026-03-25 09:15 | 42.79338 | -0.24619 | 38174 ft | 487 kts | 67° |
| 2026-03-25 09:16 | 42.82145 | -0.16308 | 38175 ft | 483 kts | 56° |
| 2026-03-25 09:17 | 42.88016 | -0.05281 | 38172 ft | 477 kts | 46° |
| 2026-03-25 09:17 | 42.92263 | 0.01703 | 38180 ft | 477 kts | 45° |
| 2026-03-25 09:18 | 42.96473 | 0.08680 | 38175 ft | 478 kts | 46° |
| 2026-03-25 09:18 | 43.00658 | 0.15674 | 38183 ft | 478 kts | 45° |
| 2026-03-25 09:19 | 43.04861 | 0.22722 | 38187 ft | 478 kts | 46° |
| 2026-03-25 09:19 | 43.09088 | 0.29835 | 38198 ft | 479 kts | 45° |
| 2026-03-25 09:20 | 43.13266 | 0.36884 | 38205 ft | 479 kts | 46° |
| 2026-03-25 09:20 | 43.17477 | 0.44003 | 38208 ft | 479 kts | 45° |
| 2026-03-25 09:21 | 43.21679 | 0.51125 | 38205 ft | 480 kts | 45° |
| 2026-03-25 09:21 | 43.25890 | 0.58282 | 38207 ft | 480 kts | 45° |
| 2026-03-25 09:22 | 43.30046 | 0.65360 | 38208 ft | 479 kts | 46° |
| 2026-03-25 09:22 | 43.34244 | 0.72521 | 38203 ft | 481 kts | 46° |
| 2026-03-25 09:23 | 43.38430 | 0.79690 | 38202 ft | 481 kts | 46° |
| 2026-03-25 09:23 | 43.42625 | 0.86886 | 38198 ft | 481 kts | 46° |
| 2026-03-25 09:24 | 43.46794 | 0.94057 | 38196 ft | 481 kts | 46° |
| 2026-03-25 09:24 | 43.50982 | 1.01279 | 38194 ft | 480 kts | 46° |
| 2026-03-25 09:25 | 43.55161 | 1.08500 | 38191 ft | 482 kts | 46° |
| 2026-03-25 09:25 | 43.59326 | 1.15720 | 38186 ft | 482 kts | 46° |
| 2026-03-25 09:26 | 43.63495 | 1.22964 | 38185 ft | 482 kts | 46° |
| 2026-03-25 09:26 | 43.67657 | 1.30215 | 38181 ft | 483 kts | 45° |
| 2026-03-25 09:27 | 43.71726 | 1.37648 | 38180 ft | 484 kts | 48° |
| 2026-03-25 09:27 | 43.75709 | 1.45181 | 38176 ft | 484 kts | 48° |
| 2026-03-25 09:28 | 43.79692 | 1.52686 | 38169 ft | 485 kts | 47° |
| 2026-03-25 09:28 | 43.83667 | 1.60180 | 38159 ft | 484 kts | 47° |
| 2026-03-25 09:29 | 43.87694 | 1.67777 | 38153 ft | 485 kts | 48° |
| 2026-03-25 09:29 | 43.91708 | 1.75377 | 38149 ft | 485 kts | 48° |
| 2026-03-25 09:30 | 43.95682 | 1.82925 | 38140 ft | 486 kts | 48° |
| 2026-03-25 09:30 | 43.99566 | 1.90640 | 38135 ft | 487 kts | 49° |
| 2026-03-25 09:31 | 44.03406 | 1.98393 | 38142 ft | 487 kts | 50° |
| 2026-03-25 09:31 | 44.07276 | 2.06201 | 38124 ft | 488 kts | 49° |
| 2026-03-25 09:32 | 44.11053 | 2.13829 | 38121 ft | 488 kts | 50° |
| 2026-03-25 09:32 | 44.14887 | 2.21591 | 38109 ft | 489 kts | 49° |
| 2026-03-25 09:33 | 44.17971 | 2.27846 | 38111 ft | 489 kts | 49° |
| 2026-03-25 09:33 | 44.21807 | 2.35644 | 38101 ft | 489 kts | 49° |
| 2026-03-25 09:34 | 44.25283 | 2.42729 | 38095 ft | 489 kts | 49° |
| 2026-03-25 09:34 | 44.29138 | 2.50609 | 38099 ft | 490 kts | 49° |
| 2026-03-25 09:35 | 44.32975 | 2.58471 | 38095 ft | 491 kts | 49° |
| 2026-03-25 09:35 | 44.36682 | 2.66089 | 38090 ft | 492 kts | 50° |
| 2026-03-25 09:36 | 44.40533 | 2.74019 | 38088 ft | 493 kts | 50° |
| 2026-03-25 09:36 | 44.44390 | 2.81992 | 38066 ft | 492 kts | 49° |
| 2026-03-25 09:37 | 44.48212 | 2.89907 | 38070 ft | 493 kts | 50° |
| 2026-03-25 09:37 | 44.52072 | 2.97928 | 38065 ft | 495 kts | 49° |
| 2026-03-25 09:38 | 44.55891 | 3.05887 | 38036 ft | 495 kts | 49° |
| 2026-03-25 09:38 | 44.59741 | 3.13929 | 38028 ft | 496 kts | 50° |
| 2026-03-25 09:39 | 44.63310 | 3.22269 | 38018 ft | 500 kts | 54° |
| 2026-03-25 09:39 | 44.66736 | 3.30854 | 37691 ft | 502 kts | 54° |
| 2026-03-25 09:39 | 44.68414 | 3.35080 | 37263 ft | 498 kts | 54° |
| 2026-03-25 09:40 | 44.70094 | 3.39301 | 36719 ft | 495 kts | 54° |
| 2026-03-25 09:40 | 44.71774 | 3.43518 | 36105 ft | 492 kts | 53° |
| 2026-03-25 09:40 | 44.73447 | 3.47711 | 35417 ft | 492 kts | 53° |
| 2026-03-25 09:40 | 44.75124 | 3.51920 | 34664 ft | 493 kts | 53° |
| 2026-03-25 09:41 | 44.76795 | 3.56121 | 33936 ft | 494 kts | 53° |
| 2026-03-25 09:41 | 44.78461 | 3.60309 | 33169 ft | 497 kts | 53° |
| 2026-03-25 09:41 | 44.80154 | 3.64562 | 32388 ft | 499 kts | 54° |
| 2026-03-25 09:41 | 44.81743 | 3.68567 | 31619 ft | 502 kts | 55° |
| 2026-03-25 09:42 | 44.83467 | 3.72929 | 30745 ft | 505 kts | 56° |
| 2026-03-25 09:42 | 44.85123 | 3.77127 | 29881 ft | 507 kts | 56° |
| 2026-03-25 09:42 | 44.86848 | 3.81512 | 28968 ft | 510 kts | 56° |
| 2026-03-25 09:42 | 44.88556 | 3.85872 | 28292 ft | 506 kts | 56° |
| 2026-03-25 09:43 | 44.90234 | 3.90166 | 27830 ft | 498 kts | 56° |
| 2026-03-25 09:43 | 44.91886 | 3.94388 | 27346 ft | 493 kts | 55° |
| 2026-03-25 09:43 | 44.93546 | 3.98634 | 26862 ft | 489 kts | 55° |
| 2026-03-25 09:43 | 44.95187 | 4.02827 | 26371 ft | 485 kts | 55° |
| 2026-03-25 09:44 | 44.96798 | 4.06954 | 25869 ft | 480 kts | 55° |
| 2026-03-25 09:44 | 44.98406 | 4.11085 | 25374 ft | 476 kts | 54° |
| 2026-03-25 09:44 | 44.99976 | 4.15133 | 24906 ft | 473 kts | 55° |
| 2026-03-25 09:44 | 45.01447 | 4.19331 | 24380 ft | 473 kts | 59° |
| 2026-03-25 09:45 | 45.02723 | 4.23649 | 23878 ft | 472 kts | 63° |
| 2026-03-25 09:45 | 45.03814 | 4.27960 | 23433 ft | 469 kts | 65° |
| 2026-03-25 09:45 | 45.04882 | 4.32358 | 22966 ft | 465 kts | 65° |
| 2026-03-25 09:45 | 45.05921 | 4.36659 | 22473 ft | 462 kts | 65° |
| 2026-03-25 09:46 | 45.06688 | 4.39837 | 22123 ft | 458 kts | 65° |
| 2026-03-25 09:46 | 45.07692 | 4.43974 | 21627 ft | 455 kts | 65° |
| 2026-03-25 09:46 | 45.08709 | 4.48157 | 21088 ft | 453 kts | 64° |
| 2026-03-25 09:46 | 45.09744 | 4.52408 | 20539 ft | 451 kts | 65° |
| 2026-03-25 09:47 | 45.10751 | 4.56555 | 19990 ft | 450 kts | 65° |
| 2026-03-25 09:47 | 45.11764 | 4.60745 | 19475 ft | 447 kts | 65° |
| 2026-03-25 09:47 | 45.12779 | 4.64948 | 18963 ft | 444 kts | 65° |
| 2026-03-25 09:47 | 45.13739 | 4.68917 | 18475 ft | 441 kts | 66° |
| 2026-03-25 09:48 | 45.14651 | 4.72700 | 17951 ft | 439 kts | 66° |
| 2026-03-25 09:48 | 45.15637 | 4.76806 | 17458 ft | 436 kts | 66° |
| 2026-03-25 09:48 | 45.16647 | 4.80795 | 16941 ft | 430 kts | 60° |
| 2026-03-25 09:48 | 45.18284 | 4.84219 | 16372 ft | 409 kts | 37° |
| 2026-03-25 09:49 | 45.20606 | 4.86363 | 15813 ft | 385 kts | 13° |
| 2026-03-25 09:49 | 45.23147 | 4.87368 | 15294 ft | 374 kts | 4° |
| 2026-03-25 09:49 | 45.25680 | 4.88160 | 14758 ft | 373 kts | 5° |
| 2026-03-25 09:49 | 45.28188 | 4.89035 | 14236 ft | 372 kts | 6° |
| 2026-03-25 09:50 | 45.30721 | 4.89892 | 13688 ft | 370 kts | 6° |
| 2026-03-25 09:50 | 45.33205 | 4.90730 | 13164 ft | 368 kts | 6° |
| 2026-03-25 09:50 | 45.35699 | 4.91582 | 12669 ft | 365 kts | 6° |
| 2026-03-25 09:50 | 45.38159 | 4.92432 | 12173 ft | 362 kts | 7° |
| 2026-03-25 09:51 | 45.40592 | 4.93274 | 11641 ft | 361 kts | 7° |
| 2026-03-25 09:51 | 45.43027 | 4.94122 | 11123 ft | 358 kts | 7° |
| 2026-03-25 09:51 | 45.45417 | 4.94956 | 10765 ft | 351 kts | 8° |
| 2026-03-25 09:51 | 45.47759 | 4.95785 | 10574 ft | 338 kts | 7° |
| 2026-03-25 09:52 | 45.50024 | 4.96584 | 10369 ft | 326 kts | 8° |
| 2026-03-25 09:52 | 45.52188 | 4.97345 | 10224 ft | 314 kts | 7° |
| 2026-03-25 09:52 | 45.54267 | 4.98000 | 10088 ft | 299 kts | 0° |
| 2026-03-25 09:52 | 45.56303 | 4.98165 | 9895 ft | 283 kts | 351° |
| 2026-03-25 09:53 | 45.58237 | 4.97943 | 9542 ft | 278 kts | 348° |
| 2026-03-25 09:53 | 45.60179 | 4.97646 | 9195 ft | 275 kts | 347° |
| 2026-03-25 09:53 | 45.62059 | 4.97358 | 8859 ft | 273 kts | 347° |
| 2026-03-25 09:53 | 45.63965 | 4.97069 | 8518 ft | 271 kts | 348° |
| 2026-03-25 09:54 | 45.65820 | 4.96795 | 8188 ft | 269 kts | 348° |
| 2026-03-25 09:54 | 45.67684 | 4.96525 | 7859 ft | 266 kts | 348° |
| 2026-03-25 09:54 | 45.69532 | 4.96257 | 7531 ft | 264 kts | 349° |
| 2026-03-25 09:54 | 45.71369 | 4.95993 | 7207 ft | 262 kts | 349° |
| 2026-03-25 09:55 | 45.73176 | 4.95735 | 6886 ft | 260 kts | 349° |
| 2026-03-25 09:55 | 45.74985 | 4.95477 | 6562 ft | 259 kts | 348° |
| 2026-03-25 09:55 | 45.76778 | 4.95225 | 6236 ft | 257 kts | 348° |
| 2026-03-25 09:55 | 45.78556 | 4.94970 | 5916 ft | 256 kts | 348° |
| 2026-03-25 09:56 | 45.80315 | 4.94715 | 5602 ft | 254 kts | 348° |
| 2026-03-25 09:56 | 45.82067 | 4.94460 | 5293 ft | 253 kts | 348° |
| 2026-03-25 09:56 | 45.83816 | 4.94211 | 5021 ft | 250 kts | 348° |
| 2026-03-25 09:56 | 45.85515 | 4.94035 | 4973 ft | 238 kts | 356° |
| 2026-03-25 09:57 | 45.87134 | 4.94378 | 4846 ft | 237 kts | 11° |
| 2026-03-25 09:57 | 45.88723 | 4.95126 | 4556 ft | 239 kts | 14° |
| 2026-03-25 09:57 | 45.90289 | 4.95952 | 4287 ft | 238 kts | 15° |
| 2026-03-25 09:57 | 45.91771 | 4.97001 | 4020 ft | 243 kts | 39° |
| 2026-03-25 09:58 | 45.92640 | 4.99078 | 3749 ft | 248 kts | 79° |
| 2026-03-25 09:58 | 45.92743 | 5.01553 | 3500 ft | 248 kts | 89° |
| 2026-03-25 09:58 | 45.92734 | 5.04006 | 3215 ft | 248 kts | 98° |
| 2026-03-25 09:58 | 45.92113 | 5.06279 | 2984 ft | 241 kts | 133° |
| 2026-03-25 09:59 | 45.90775 | 5.07664 | 2979 ft | 234 kts | 167° |
| 2026-03-25 09:59 | 45.89193 | 5.07872 | 2984 ft | 226 kts | 188° |
| 2026-03-25 09:59 | 45.87615 | 5.07705 | 2979 ft | 224 kts | 186° |
| 2026-03-25 09:59 | 45.86041 | 5.07696 | 2974 ft | 223 kts | 181° |
| 2026-03-25 10:00 | 45.84510 | 5.07831 | 2899 ft | 218 kts | 179° |
| 2026-03-25 10:00 | 45.83035 | 5.08023 | 2736 ft | 207 kts | 178° |
| 2026-03-25 10:00 | 45.81641 | 5.08206 | 2423 ft | 194 kts | 178° |
| 2026-03-25 10:00 | 45.80327 | 5.08366 | 2137 ft | 183 kts | 178° |
| 2026-03-25 10:01 | 45.79087 | 5.08514 | 1880 ft | 173 kts | 178° |
| 2026-03-25 10:01 | 45.77932 | 5.08652 | 1676 ft | 157 kts | 178° |
| 2026-03-25 10:01 | 45.76886 | 5.08745 | 1450 ft | 141 kts | 177° |
| 2026-03-25 10:01 | 45.75946 | 5.08855 | 1209 ft | 133 kts | 175° |
| 2026-03-25 10:02 | 45.75024 | 5.08990 | 1058 ft | 133 kts | 174° |
| 2026-03-25 10:02 | 45.74097 | 5.09119 | 897 ft | 133 kts | 177° |
| 2026-03-25 10:02 | 45.73181 | 5.09225 | 801 ft | 126 kts | 174° |
| 2026-03-25 10:02 | 45.72419 | 5.09317 | 808 ft | 85 kts | 175° |
| 2026-03-25 10:03 | 45.72037 | 5.09242 | 814 ft | 15 kts | 206° |
| 2026-03-25 10:03 | 45.71977 | 5.09161 | 813 ft | 11 kts | 256° |
| 2026-03-25 10:03 | 45.71974 | 5.09033 | 810 ft | 14 kts | 266° |
| 2026-03-25 10:03 | 45.71965 | 5.08882 | 809 ft | 15 kts | 264° |
| 2026-03-25 10:04 | 45.71953 | 5.08737 | 806 ft | 7 kts | 264° |
| 2026-03-25 10:04 | 45.71947 | 5.08650 | 804 ft | 10 kts | 264° |
| 2026-03-25 10:04 | 45.71938 | 5.08529 | 802 ft | 13 kts | 261° |
| 2026-03-25 10:04 | 45.71867 | 5.08471 | 802 ft | 12 kts | 177° |